Time;durP1;ratioP1;P1;durP2;ratioP2;P2;SDS_P1;SDS_P2;PMS_P1;PMS_P2;Temp;Humidity;BMP_temperature;BMP_pressure;BME280_temperature;BME280_humidity;BME280_pressure;Samples;Min_cycle;Max_cycle;Signal;HPM_P1;HPM_P2
2023/02/22 00:00:26;;;;;;;12.13;6.60;;;10.30;85.30;;;;;;5049403;28;20116;-59
2023/02/22 00:02:58;;;;;;;11.55;5.82;;;10.30;85.30;;;;;;5047571;28;20413;-64
2023/02/22 00:05:30;;;;;;;10.40;6.50;;;10.30;85.10;;;;;;5049281;28;20043;-59
2023/02/22 00:07:56;;;;;;;12.18;6.63;;;10.20;85.10;;;;;;5047219;28;20100;-59
2023/02/22 00:10:23;;;;;;;12.32;7.10;;;10.20;85.10;;;;;;5048610;28;20060;-58
2023/02/22 00:12:51;;;;;;;13.60;7.38;;;10.20;85.00;;;;;;5044746;28;20021;-59
2023/02/22 00:15:19;;;;;;;16.13;8.02;;;10.20;85.00;;;;;;5046694;28;20086;-58
2023/02/22 00:17:45;;;;;;;15.20;7.05;;;10.20;84.70;;;;;;5042703;28;20049;-58
2023/02/22 00:20:13;;;;;;;12.50;7.03;;;10.10;85.50;;;;;;5046030;28;20083;-58
2023/02/22 00:22:40;;;;;;;13.50;7.35;;;10.10;84.90;;;;;;5042587;28;20068;-59
2023/02/22 00:25:06;;;;;;;12.77;6.40;;;10.10;84.90;;;;;;5047675;28;20060;-60
2023/02/22 00:27:32;;;;;;;11.27;6.95;;;10.10;84.80;;;;;;5081453;28;20037;-59
2023/02/22 00:29:58;;;;;;;12.52;7.57;;;10.10;84.80;;;;;;5046386;28;20035;-58
2023/02/22 00:32:24;;;;;;;13.73;7.18;;;10.10;84.70;;;;;;5041727;28;20029;-65
2023/02/22 00:34:52;;;;;;;11.50;6.78;;;10.10;84.70;;;;;;5049105;28;20017;-65
2023/02/22 00:37:18;;;;;;;9.43;5.47;;;10.10;84.70;;;;;;5052645;28;20024;-65
2023/02/22 00:39:47;;;;;;;13.43;7.45;;;10.10;84.70;;;;;;5049180;28;20025;-59
2023/02/22 00:42:13;;;;;;;15.48;5.97;;;10.10;84.70;;;;;;5081225;28;20055;-59
2023/02/22 00:44:38;;;;;;;14.02;5.90;;;10.10;84.50;;;;;;5049031;28;20021;-60
2023/02/22 00:47:04;;;;;;;12.68;7.63;;;10.20;84.50;;;;;;5048958;28;20396;-60
2023/02/22 00:49:30;;;;;;;9.15;5.80;;;10.20;84.40;;;;;;5048518;28;20045;-66
2023/02/22 00:51:56;;;;;;;13.57;7.28;;;10.10;84.20;;;;;;5048764;28;20059;-64
2023/02/22 00:54:21;;;;;;;9.43;6.35;;;10.10;84.20;;;;;;5048034;28;20037;-64
2023/02/22 00:56:49;;;;;;;11.80;6.68;;;10.10;84.20;;;;;;5045029;28;20067;-60
2023/02/22 00:59:15;;;;;;;11.73;6.00;;;10.10;84.20;;;;;;5040608;28;20512;-59
2023/02/22 01:01:41;;;;;;;13.07;7.25;;;10.10;84.20;;;;;;5046336;28;20059;-59
2023/02/22 01:04:07;;;;;;;15.95;7.50;;;10.10;84.10;;;;;;5048530;28;20526;-65
2023/02/22 01:06:33;;;;;;;10.80;6.30;;;10.10;84.10;;;;;;5064019;28;20358;-65
2023/02/22 01:09:01;;;;;;;10.43;6.57;;;10.00;83.90;;;;;;5048783;28;20024;-65
2023/02/22 01:11:27;;;;;;;7.97;5.18;;;10.00;84.00;;;;;;5047400;28;20033;-65
2023/02/22 01:13:54;;;;;;;9.18;5.97;;;10.00;84.00;;;;;;5064085;28;20062;-65
2023/02/22 01:16:20;;;;;;;11.25;6.45;;;10.00;84.00;;;;;;5046883;28;20021;-65
2023/02/22 01:18:46;;;;;;;12.07;5.53;;;10.00;84.10;;;;;;5052886;28;20017;-65
2023/02/22 01:21:12;;;;;;;13.15;6.97;;;10.00;84.10;;;;;;5053191;28;20027;-65
2023/02/22 01:23:38;;;;;;;11.50;6.15;;;10.00;84.10;;;;;;5053012;28;20460;-59
2023/02/22 01:26:04;;;;;;;8.93;6.43;;;10.00;84.00;;;;;;5068047;28;20083;-58
2023/02/22 01:28:31;;;;;;;9.73;5.97;;;10.00;83.90;;;;;;5068326;28;20036;-59
2023/02/22 01:30:57;;;;;;;14.13;7.55;;;10.00;83.80;;;;;;5083447;28;20052;-64
2023/02/22 01:33:24;;;;;;;12.80;7.20;;;10.00;83.80;;;;;;5044007;28;20421;-65
2023/02/22 01:35:50;;;;;;;13.00;7.68;;;10.00;83.80;;;;;;5051097;28;20024;-65
2023/02/22 01:38:16;;;;;;;11.57;6.03;;;10.00;83.80;;;;;;5045847;28;20132;-65
2023/02/22 01:40:46;;;;;;;12.77;7.13;;;10.00;83.80;;;;;;5038982;28;20520;-65
2023/02/22 01:43:30;;;;;;;10.95;7.13;;;10.00;83.90;;;;;;5047519;28;20040;-64
2023/02/22 01:46:06;;;;;;;12.38;8.15;;;10.00;83.60;;;;;;5042091;28;20104;-66
2023/02/22 01:48:44;;;;;;;11.65;6.95;;;9.90;83.60;;;;;;5043601;28;20037;-65
2023/02/22 01:51:12;;;;;;;13.52;7.38;;;10.00;83.70;;;;;;5049532;28;20435;-64
2023/02/22 01:53:54;;;;;;;11.50;6.47;;;10.00;83.70;;;;;;5045409;28;20032;-65
2023/02/22 01:56:21;;;;;;;11.15;6.85;;;10.00;83.60;;;;;;5052216;28;20029;-65
2023/02/22 01:58:55;;;;;;;10.52;7.20;;;9.90;83.50;;;;;;5084460;28;20025;-65
2023/02/22 02:01:23;;;;;;;11.70;6.68;;;10.00;83.50;;;;;;5052396;28;20033;-66
2023/02/22 02:03:50;;;;;;;9.30;6.57;;;9.90;83.40;;;;;;5051625;28;20361;-58
2023/02/22 02:06:18;;;;;;;16.23;7.63;;;9.80;83.60;;;;;;5051996;28;20025;-58
2023/02/22 02:08:51;;;;;;;10.93;5.93;;;9.70;83.50;;;;;;5051249;28;20383;-58
2023/02/22 02:11:20;;;;;;;11.57;7.18;;;9.70;83.60;;;;;;5050632;28;20067;-58
2023/02/22 02:13:50;;;;;;;13.23;6.93;;;9.70;83.60;;;;;;5052081;28;20025;-65
2023/02/22 02:16:16;;;;;;;11.00;6.35;;;9.70;83.50;;;;;;5051677;28;20372;-59
2023/02/22 02:18:41;;;;;;;10.88;4.95;;;9.70;83.50;;;;;;5079315;28;20119;-60
2023/02/22 02:21:26;;;;;;;10.98;6.50;;;9.70;83.60;;;;;;5052162;28;20100;-65
2023/02/22 02:23:54;;;;;;;16.95;7.60;;;9.70;83.40;;;;;;5049105;28;20060;-66
2023/02/22 02:26:34;;;;;;;17.77;8.85;;;9.60;83.00;;;;;;5048753;28;20019;-58
2023/02/22 02:29:28;;;;;;;10.20;6.65;;;9.50;83.20;;;;;;5067245;28;20021;-59
2023/02/22 02:32:12;;;;;;;11.63;7.25;;;9.40;83.50;;;;;;5046613;28;20025;-61
2023/02/22 02:34:47;;;;;;;12.63;7.78;;;9.50;83.50;;;;;;5044591;28;20310;-64
2023/02/22 02:37:12;;;;;;;13.48;6.68;;;9.50;83.40;;;;;;5047271;28;20090;-60
2023/02/22 02:40:16;;;;;;;13.80;6.72;;;9.50;83.40;;;;;;5051789;28;20024;-59
2023/02/22 02:42:59;;;;;;;11.02;6.60;;;9.50;83.10;;;;;;5045378;28;20021;-59
2023/02/22 02:45:58;;;;;;;16.13;9.57;;;9.50;83.10;;;;;;5049938;28;20017;-58
2023/02/22 02:48:27;;;;;;;14.27;8.35;;;9.50;83.20;;;;;;5039861;28;20045;-59
2023/02/22 02:50:56;;;;;;;13.18;7.20;;;9.50;83.10;;;;;;5049835;28;20052;-60
2023/02/22 02:53:26;;;;;;;14.32;9.30;;;9.50;83.00;;;;;;5049705;28;20024;-59
2023/02/22 02:55:51;;;;;;;12.35;7.75;;;9.50;82.80;;;;;;5044657;28;20108;-58
2023/02/22 02:58:22;;;;;;;17.13;8.60;;;9.40;82.90;;;;;;5050194;28;20123;-59
2023/02/22 03:00:52;;;;;;;18.90;10.60;;;9.40;82.80;;;;;;5045512;28;20072;-66
2023/02/22 03:03:24;;;;;;;17.17;8.35;;;9.40;82.80;;;;;;5044896;28;20150;-60
2023/02/22 03:05:58;;;;;;;17.60;8.48;;;9.30;82.60;;;;;;5043972;28;20103;-60
2023/02/22 03:08:23;;;;;;;18.65;8.82;;;9.30;82.80;;;;;;5049597;28;20140;-59
2023/02/22 03:11:13;;;;;;;16.38;8.35;;;9.30;82.80;;;;;;5076385;28;20455;-60
2023/02/22 03:14:16;;;;;;;16.20;8.05;;;9.40;82.70;;;;;;5049428;28;20064;-59
2023/02/22 03:16:50;;;;;;;;;;;9.30;82.70;;;;;;5048191;28;20020;-60
2023/02/22 03:19:31;;;;;;;17.70;9.98;;;9.20;82.80;;;;;;5050934;28;20033;-59
2023/02/22 03:22:23;;;;;;;12.77;7.93;;;9.20;83.00;;;;;;5037916;28;20521;-60
2023/02/22 03:24:54;;;;;;;16.65;8.75;;;9.20;83.00;;;;;;5047752;28;20056;-59
2023/02/22 03:28:01;;;;;;;16.00;8.82;;;9.30;83.00;;;;;;5050876;28;20067;-60
2023/02/22 03:30:35;;;;;;;15.65;9.40;;;9.30;82.80;;;;;;5046993;28;20035;-60
2023/02/22 03:33:09;;;;;;;15.55;8.77;;;9.30;82.90;;;;;;5045416;28;20096;-59
2023/02/22 03:35:49;;;;;;;14.25;9.15;;;9.40;83.00;;;;;;5050426;28;20059;-66
2023/02/22 03:38:19;;;;;;;20.73;9.52;;;9.30;82.90;;;;;;5041742;28;20029;-65
2023/02/22 03:40:49;;;;;;;16.77;10.65;;;9.30;82.90;;;;;;5049283;28;20017;-58
2023/02/22 03:43:20;;;;;;;19.30;10.35;;;9.30;83.00;;;;;;5048762;28;20021;-58
2023/02/22 03:45:49;;;;;;;20.88;10.35;;;9.30;83.00;;;;;;5047727;28;20403;-59
2023/02/22 03:48:36;;;;;;;12.73;8.18;;;9.30;83.10;;;;;;5049833;28;20021;-59
2023/02/22 03:51:03;;;;;;;13.57;7.80;;;9.30;83.00;;;;;;5050581;28;20577;-60
2023/02/22 03:53:31;;;;;;;14.02;8.40;;;9.40;83.10;;;;;;5049961;28;20013;-59
2023/02/22 03:55:58;;;;;;;14.25;10.50;;;9.40;83.10;;;;;;5049755;28;20480;-59
2023/02/22 03:58:29;;;;;;;22.40;9.23;;;9.40;83.10;;;;;;5047636;28;20032;-66
2023/02/22 04:00:55;;;;;;;18.17;8.38;;;9.40;83.10;;;;;;5049943;28;20039;-65
2023/02/22 04:03:22;;;;;;;18.90;9.30;;;9.40;83.00;;;;;;5043095;28;20424;-58
2023/02/22 04:05:48;;;;;;;14.02;7.93;;;9.40;83.00;;;;;;5045234;28;20063;-59
2023/02/22 04:08:14;;;;;;;19.52;9.13;;;9.40;83.00;;;;;;5044648;28;20741;-59
2023/02/22 04:10:39;;;;;;;11.98;8.18;;;9.40;83.00;;;;;;5050324;28;20029;-59
2023/02/22 04:13:09;;;;;;;18.05;8.98;;;9.30;83.00;;;;;;5049027;28;20049;-59
2023/02/22 04:15:35;;;;;;;15.75;8.93;;;9.30;83.00;;;;;;5048617;28;20111;-59
2023/02/22 04:18:01;;;;;;;15.52;7.95;;;9.30;82.90;;;;;;5047859;28;20124;-58
2023/02/22 04:20:26;;;;;;;15.35;8.75;;;9.30;82.90;;;;;;5030562;28;20116;-59
2023/02/22 04:22:53;;;;;;;19.55;9.18;;;9.30;82.90;;;;;;5048106;28;20036;-60
2023/02/22 04:25:20;;;;;;;17.65;8.48;;;9.30;82.80;;;;;;5049137;28;20098;-59
2023/02/22 04:27:46;;;;;;;17.55;9.75;;;9.30;82.70;;;;;;5048800;28;20516;-59
2023/02/22 04:30:12;;;;;;;16.52;8.57;;;9.30;82.70;;;;;;5049842;28;20099;-59
2023/02/22 04:32:38;;;;;;;22.33;10.73;;;9.30;82.60;;;;;;5049050;28;20024;-66
2023/02/22 04:35:05;;;;;;;20.13;10.18;;;9.20;83.20;;;;;;5049294;28;20354;-66
2023/02/22 04:37:33;;;;;;;13.60;8.32;;;9.10;82.80;;;;;;5048969;28;20025;-66
2023/02/22 04:40:00;;;;;;;17.48;10.40;;;9.10;82.90;;;;;;5046776;28;20029;-59
2023/02/22 04:42:26;;;;;;;16.42;8.48;;;9.00;83.00;;;;;;5049390;28;20516;-59
2023/02/22 04:44:51;;;;;;;15.52;8.95;;;9.00;83.10;;;;;;5046773;28;20507;-59
2023/02/22 04:47:17;;;;;;;14.00;8.35;;;9.00;83.20;;;;;;5048214;28;20017;-60
2023/02/22 04:49:44;;;;;;;17.80;9.57;;;9.00;83.10;;;;;;5049059;28;20037;-62
2023/02/22 04:52:10;;;;;;;16.38;8.60;;;9.00;83.20;;;;;;5047927;28;20043;-59
2023/02/22 04:54:36;;;;;;;18.95;10.32;;;9.00;83.10;;;;;;5047207;28;20100;-60
2023/02/22 04:57:01;;;;;;;17.73;9.93;;;9.00;83.10;;;;;;5047803;28;20511;-65
2023/02/22 04:59:27;;;;;;;16.85;9.18;;;9.00;83.00;;;;;;5047887;28;20400;-66
2023/02/22 05:01:53;;;;;;;17.00;9.50;;;9.00;83.10;;;;;;5047538;28;20041;-59
2023/02/22 05:04:18;;;;;;;18.38;10.15;;;8.90;83.10;;;;;;5048739;28;20017;-60
2023/02/22 05:06:44;;;;;;;21.10;10.20;;;9.00;83.10;;;;;;5049172;28;20025;-59
2023/02/22 05:09:10;;;;;;;15.80;9.98;;;9.00;83.20;;;;;;5048635;28;20430;-60
2023/02/22 05:11:35;;;;;;;18.02;10.95;;;9.00;83.20;;;;;;5047713;28;20043;-66
2023/02/22 05:14:01;;;;;;;27.30;12.77;;;9.00;83.10;;;;;;5048664;28;20029;-65
2023/02/22 05:16:27;;;;;;;20.73;10.90;;;8.90;83.00;;;;;;5049119;28;20112;-58
2023/02/22 05:18:52;;;;;;;20.02;10.98;;;9.00;83.10;;;;;;5079052;28;20139;-66
2023/02/22 05:21:18;;;;;;;24.77;12.73;;;8.90;83.10;;;;;;5046241;28;20108;-66
2023/02/22 05:23:44;;;;;;;23.50;11.85;;;8.90;83.10;;;;;;5047288;28;20023;-63
2023/02/22 05:26:09;;;;;;;23.25;14.02;;;8.90;83.20;;;;;;5045953;28;20503;-63
2023/02/22 05:28:37;;;;;;;24.33;13.77;;;8.90;83.20;;;;;;5045612;28;20090;-58
2023/02/22 05:31:02;;;;;;;26.30;13.52;;;8.90;83.20;;;;;;5047434;28;20029;-63
2023/02/22 05:33:28;;;;;;;27.80;14.23;;;8.90;83.10;;;;;;5046276;28;20033;-58
2023/02/22 05:35:54;;;;;;;25.25;16.27;;;8.80;83.10;;;;;;5076297;28;20029;-66
2023/02/22 05:38:21;;;;;;;31.05;15.00;;;8.80;83.20;;;;;;5048386;28;20067;-66
2023/02/22 05:40:47;;;;;;;30.23;13.35;;;8.80;83.30;;;;;;5047840;28;20488;-66
2023/02/22 05:43:14;;;;;;;25.55;15.75;;;8.80;83.20;;;;;;5041307;28;20021;-66
2023/02/22 05:45:40;;;;;;;25.98;14.18;;;8.80;83.10;;;;;;5037369;28;20484;-66
2023/02/22 05:48:06;;;;;;;23.38;13.35;;;8.80;83.20;;;;;;5040257;28;20448;-59
2023/02/22 05:50:33;;;;;;;27.45;14.52;;;8.90;83.30;;;;;;5049264;28;20527;-66
2023/02/22 05:52:59;;;;;;;24.20;12.27;;;8.80;83.30;;;;;;5075133;28;20056;-66
2023/02/22 05:55:25;;;;;;;23.42;13.65;;;8.90;83.40;;;;;;5048212;28;20492;-59
2023/02/22 05:57:51;;;;;;;20.50;12.55;;;8.90;83.40;;;;;;5047190;28;20025;-58
2023/02/22 06:00:23;;;;;;;25.90;12.98;;;8.90;83.90;;;;;;5047012;28;20029;-65
2023/02/22 06:03:01;;;;;;;24.02;12.93;;;8.90;83.30;;;;;;5048900;28;20408;-65
2023/02/22 06:05:27;;;;;;;25.80;13.82;;;8.90;83.30;;;;;;5049804;28;20017;-59
2023/02/22 06:07:53;;;;;;;19.30;12.95;;;8.80;83.30;;;;;;5049130;28;20106;-59
2023/02/22 06:10:19;;;;;;;22.98;12.43;;;8.80;83.40;;;;;;5050684;28;20045;-58
2023/02/22 06:12:46;;;;;;;25.80;12.75;;;8.80;83.60;;;;;;5049785;28;20114;-60
2023/02/22 06:15:13;;;;;;;38.38;11.63;;;8.80;83.70;;;;;;5047740;28;20036;-59
2023/02/22 06:17:40;;;;;;;23.08;11.15;;;8.80;83.60;;;;;;5047976;28;20452;-59
2023/02/22 06:20:08;;;;;;;33.03;11.18;;;8.70;83.70;;;;;;5078455;28;20024;-59
2023/02/22 06:22:33;;;;;;;18.02;9.15;;;8.70;83.80;;;;;;5048131;28;20025;-59
2023/02/22 06:25:02;;;;;;;24.27;12.32;;;8.70;83.90;;;;;;5051813;28;20545;-59
2023/02/22 06:27:31;;;;;;;14.70;8.88;;;8.60;84.00;;;;;;5052218;28;20533;-60
2023/02/22 06:29:56;;;;;;;22.45;11.20;;;8.60;84.20;;;;;;5051185;28;20104;-60
2023/02/22 06:32:22;;;;;;;30.83;10.63;;;8.60;84.20;;;;;;5051277;28;20143;-65
2023/02/22 06:34:47;;;;;;;60.72;11.52;;;8.60;84.20;;;;;;5051407;28;20029;-59
2023/02/22 06:37:13;;;;;;;17.90;10.35;;;8.60;84.40;;;;;;5083281;28;20033;-59
2023/02/22 06:39:39;;;;;;;23.52;11.02;;;8.60;84.50;;;;;;5050915;28;20116;-59
2023/02/22 06:42:04;;;;;;;23.83;10.05;;;8.60;84.60;;;;;;5051360;28;20029;-60
2023/02/22 06:44:30;;;;;;;19.33;10.93;;;8.60;84.60;;;;;;5049785;28;20025;-66
2023/02/22 06:46:58;;;;;;;26.42;12.77;;;8.60;84.70;;;;;;5043496;28;20460;-66
2023/02/22 06:49:25;;;;;;;21.10;9.35;;;8.60;84.90;;;;;;5048957;28;20052;-59
2023/02/22 06:51:51;;;;;;;22.23;10.68;;;8.50;84.90;;;;;;5050433;28;20480;-60
2023/02/22 06:54:17;;;;;;;15.32;10.98;;;8.50;85.00;;;;;;5047358;28;20029;-66
2023/02/22 06:56:42;;;;;;;17.00;10.23;;;8.50;85.20;;;;;;5042744;28;20028;-65
2023/02/22 06:59:08;;;;;;;19.50;10.70;;;8.50;85.20;;;;;;5049383;28;20037;-66
2023/02/22 07:01:34;;;;;;;17.58;8.98;;;8.60;85.30;;;;;;5049473;28;20108;-66
2023/02/22 07:04:00;;;;;;;20.45;11.40;;;8.60;85.20;;;;;;5051182;28;20368;-66
2023/02/22 07:06:25;;;;;;;23.20;10.52;;;8.60;85.20;;;;;;5048878;28;20036;-66
2023/02/22 07:08:51;;;;;;;17.30;8.77;;;8.70;85.20;;;;;;5049650;28;20028;-60
2023/02/22 07:11:17;;;;;;;14.80;9.05;;;8.70;85.20;;;;;;5050796;28;20052;-59
2023/02/22 07:13:42;;;;;;;17.50;10.57;;;8.70;85.30;;;;;;5050801;28;20057;-60
2023/02/22 07:16:08;;;;;;;16.58;9.30;;;8.70;85.40;;;;;;5050396;28;20032;-59
2023/02/22 07:18:34;;;;;;;14.95;9.60;;;8.70;85.40;;;;;;5052101;28;20032;-62
2023/02/22 07:20:59;;;;;;;16.48;9.45;;;8.70;85.40;;;;;;5048932;28;20033;-61
2023/02/22 07:23:25;;;;;;;18.42;10.70;;;8.70;85.40;;;;;;5049939;28;20104;-61
2023/02/22 07:25:51;;;;;;;20.15;10.93;;;8.80;85.50;;;;;;5048426;28;20021;-61
2023/02/22 07:28:17;;;;;;;15.10;8.43;;;8.80;85.50;;;;;;5049773;28;20031;-62
2023/02/22 07:30:43;;;;;;;20.60;10.02;;;8.80;85.50;;;;;;5048686;28;20055;-61
2023/02/22 07:33:11;;;;;;;44.50;10.57;;;8.80;85.50;;;;;;5048958;28;20033;-66
2023/02/22 07:35:42;;;;;;;16.83;10.50;;;8.80;85.50;;;;;;5051516;28;20033;-66
2023/02/22 07:38:08;;;;;;;21.77;10.93;;;8.80;85.60;;;;;;5050298;28;20033;-61
2023/02/22 07:40:36;;;;;;;19.92;10.15;;;8.80;85.70;;;;;;5050281;28;20040;-61
2023/02/22 07:43:02;;;;;;;16.80;9.35;;;8.90;85.70;;;;;;5046772;28;20424;-66
2023/02/22 07:45:32;;;;;;;22.75;10.05;;;8.90;85.70;;;;;;5049169;28;20463;-62
2023/02/22 07:47:59;;;;;;;18.35;8.60;;;8.90;85.60;;;;;;5051316;28;20075;-62
2023/02/22 07:50:26;;;;;;;15.40;8.73;;;8.90;85.60;;;;;;5051326;28;20048;-66
2023/02/22 07:52:55;;;;;;;19.05;9.98;;;8.90;85.70;;;;;;5051309;28;20036;-65
2023/02/22 07:55:24;;;;;;;20.08;9.73;;;8.90;86.40;;;;;;5049597;28;20028;-65
2023/02/22 07:57:51;;;;;;;17.88;10.35;;;9.00;85.80;;;;;;5049710;28;20025;-65
2023/02/22 08:00:28;;;;;;;17.50;10.13;;;9.00;85.80;;;;;;5048997;28;20491;-65
2023/02/22 08:02:55;;;;;;;15.70;8.38;;;9.00;85.80;;;;;;5042173;28;20025;-65
2023/02/22 08:05:23;;;;;;;34.70;11.57;;;9.10;85.80;;;;;;5041161;28;20498;-62
2023/02/22 08:07:49;;;;;;;15.73;8.50;;;9.10;85.80;;;;;;5079022;28;20112;-62
2023/02/22 08:10:16;;;;;;;16.58;9.05;;;9.10;85.80;;;;;;5047307;28;20555;-66
2023/02/22 08:12:42;;;;;;;21.10;10.45;;;9.10;85.80;;;;;;5046017;28;20033;-66
2023/02/22 08:15:15;;;;;;;18.15;10.45;;;9.10;85.90;;;;;;5045625;28;20490;-61
2023/02/22 08:17:40;;;;;;;16.70;9.73;;;9.10;85.90;;;;;;5058078;28;20060;-66
2023/02/22 08:20:07;;;;;;;21.00;9.60;;;9.20;86.00;;;;;;5042635;28;20452;-67
2023/02/22 08:22:32;;;;;;;17.80;9.65;;;9.20;86.00;;;;;;5049389;28;20036;-67
2023/02/22 08:24:58;;;;;;;25.38;10.93;;;9.20;86.00;;;;;;5035662;28;20030;-68
2023/02/22 08:27:24;;;;;;;22.10;11.05;;;9.20;85.90;;;;;;5046084;28;20029;-66
2023/02/22 08:29:50;;;;;;;21.85;10.75;;;9.20;85.80;;;;;;5041196;28;20040;-64
2023/02/22 08:32:16;;;;;;;18.35;10.40;;;9.20;85.90;;;;;;5046226;28;20083;-67
2023/02/22 08:34:42;;;;;;;21.65;9.02;;;9.20;85.90;;;;;;5077628;28;20495;-61
2023/02/22 08:37:08;;;;;;;19.30;9.45;;;9.20;86.00;;;;;;5046455;28;20028;-65
2023/02/22 08:39:33;;;;;;;19.95;9.23;;;9.20;86.10;;;;;;5055471;28;20029;-67
2023/02/22 08:41:59;;;;;;;23.52;10.68;;;9.30;86.20;;;;;;5044612;28;20094;-58
2023/02/22 08:44:25;;;;;;;18.60;10.23;;;9.30;86.20;;;;;;5048943;28;20040;-64
2023/02/22 08:46:50;;;;;;;25.00;9.88;;;9.40;86.10;;;;;;5041634;28;20021;-65
2023/02/22 08:49:16;;;;;;;28.02;11.40;;;9.40;86.00;;;;;;5036304;28;20048;-65
2023/02/22 08:51:42;;;;;;;19.45;10.45;;;9.40;85.90;;;;;;5043536;28;20606;-58
2023/02/22 08:54:08;;;;;;;18.98;10.10;;;9.50;85.90;;;;;;5041617;28;20421;-58
2023/02/22 08:56:33;;;;;;;16.30;9.40;;;9.50;85.90;;;;;;5073785;28;20044;-58
2023/02/22 08:58:59;;;;;;;17.88;9.82;;;9.50;85.90;;;;;;5032888;28;20030;-59
2023/02/22 09:01:25;;;;;;;22.15;11.70;;;9.50;85.70;;;;;;5073398;28;20060;-59
2023/02/22 09:03:51;;;;;;;19.80;9.40;;;9.50;85.80;;;;;;5055160;28;20464;-59
2023/02/22 09:06:17;;;;;;;20.45;10.68;;;9.50;85.90;;;;;;5042895;28;20039;-65
2023/02/22 09:08:43;;;;;;;20.92;9.30;;;9.50;86.00;;;;;;5045363;28;20090;-65
2023/02/22 09:11:09;;;;;;;17.75;8.98;;;9.50;86.00;;;;;;5058875;28;20049;-65
2023/02/22 09:13:34;;;;;;;19.83;10.25;;;9.60;85.90;;;;;;5046505;28;20032;-65
2023/02/22 09:16:00;;;;;;;20.10;9.73;;;9.50;85.80;;;;;;5036816;28;20566;-64
2023/02/22 09:18:27;;;;;;;23.25;9.80;;;9.50;86.10;;;;;;5043453;28;20041;-64
2023/02/22 09:20:53;;;;;;;22.42;10.20;;;9.50;86.00;;;;;;5042137;28;20047;-65
2023/02/22 09:23:20;;;;;;;16.08;10.60;;;9.50;86.00;;;;;;5055373;28;20444;-64
2023/02/22 09:25:47;;;;;;;19.48;10.63;;;9.60;85.90;;;;;;5035621;28;20376;-65
2023/02/22 09:28:13;;;;;;;16.63;8.13;;;9.60;85.80;;;;;;5041776;28;20045;-59
2023/02/22 09:30:39;;;;;;;15.60;9.63;;;9.60;85.70;;;;;;5037769;28;20468;-65
2023/02/22 09:33:09;;;;;;;21.73;9.13;;;9.70;85.60;;;;;;5043778;28;20029;-64
2023/02/22 09:35:35;;;;;;;16.73;9.30;;;9.80;85.60;;;;;;5045121;28;20443;-64
2023/02/22 09:38:04;;;;;;;15.73;8.98;;;9.90;85.50;;;;;;5044071;28;20108;-65
2023/02/22 09:40:35;;;;;;;20.38;11.65;;;10.00;85.40;;;;;;5041013;28;20048;-58
2023/02/22 09:43:10;;;;;;;16.83;10.27;;;10.00;85.30;;;;;;5047509;28;20029;-64
2023/02/22 09:46:12;;;;;;;27.05;11.48;;;10.10;85.10;;;;;;5045227;28;20026;-58
2023/02/22 09:49:15;;;;;;;20.02;8.82;;;10.20;85.00;;;;;;5045831;28;20100;-64
2023/02/22 09:51:54;;;;;;;21.15;10.48;;;10.30;85.00;;;;;;5044163;28;20094;-64
2023/02/22 09:54:50;;;;;;;26.70;11.63;;;10.40;85.00;;;;;;5047507;28;20033;-64
2023/02/22 09:57:24;;;;;;;21.25;9.98;;;10.40;84.60;;;;;;5042462;28;20579;-58
2023/02/22 10:00:12;;;;;;;16.08;9.35;;;10.40;84.60;;;;;;5043809;28;20078;-58
2023/02/22 10:02:44;;;;;;;18.83;10.88;;;10.60;84.60;;;;;;5042063;28;20104;-58
2023/02/22 10:05:26;;;;;;;21.00;10.50;;;10.60;84.50;;;;;;5048693;28;20404;-58
2023/02/22 10:08:11;;;;;;;24.05;13.05;;;10.70;84.40;;;;;;5039539;28;20114;-59
2023/02/22 10:10:40;;;;;;;24.10;12.38;;;10.70;84.20;;;;;;5046322;28;20025;-65
2023/02/22 10:13:41;;;;;;;29.95;12.07;;;10.60;84.00;;;;;;5041157;28;20366;-65
2023/02/22 10:16:20;;;;;;;18.42;10.45;;;10.70;84.10;;;;;;5033761;28;20041;-64
2023/02/22 10:19:07;;;;;;;24.48;12.20;;;10.70;84.20;;;;;;5047587;28;20112;-65
2023/02/22 10:21:56;;;;;;;25.67;11.55;;;10.80;84.00;;;;;;5061830;28;20102;-58
2023/02/22 10:24:44;;;;;;;23.42;10.95;;;10.80;83.70;;;;;;5040382;28;20055;-59
2023/02/22 10:27:17;;;;;;;24.17;11.48;;;10.80;83.80;;;;;;5044194;28;20401;-58
2023/02/22 10:29:49;;;;;;;18.90;9.82;;;10.90;83.70;;;;;;5044550;28;20488;-65
2023/02/22 10:32:20;;;;;;;22.80;11.63;;;11.00;83.60;;;;;;5045881;28;20115;-65
2023/02/22 10:34:50;;;;;;;25.15;10.90;;;11.20;83.20;;;;;;5036699;28;20036;-65
2023/02/22 10:37:33;;;;;;;18.15;10.63;;;11.20;82.90;;;;;;5044855;28;20017;-65
2023/02/22 10:40:05;;;;;;;23.67;11.30;;;11.40;82.30;;;;;;5040253;28;20036;-59
2023/02/22 10:42:31;;;;;;;18.85;10.32;;;11.50;82.10;;;;;;5039250;28;20033;-65
2023/02/22 10:44:56;;;;;;;21.27;9.88;;;11.70;81.80;;;;;;5048497;28;20480;-65
2023/02/22 10:47:23;;;;;;;18.33;9.82;;;11.80;81.40;;;;;;5048344;28;20087;-65
2023/02/22 10:49:59;;;;;;;24.73;11.05;;;11.90;81.20;;;;;;5048056;28;20094;-65
2023/02/22 10:52:32;;;;;;;18.45;10.50;;;12.10;80.90;;;;;;5047092;28;20037;-65
2023/02/22 10:54:59;;;;;;;17.15;9.25;;;12.20;80.60;;;;;;5041646;28;20026;-65
2023/02/22 10:57:36;;;;;;;18.20;10.15;;;12.40;80.30;;;;;;5041678;28;20377;-65
2023/02/22 11:00:25;;;;;;;18.73;8.88;;;12.60;79.90;;;;;;5039544;28;20029;-65
2023/02/22 11:02:59;;;;;;;20.63;10.20;;;12.80;79.60;;;;;;5040936;28;20029;-65
2023/02/22 11:05:31;;;;;;;15.68;9.38;;;12.90;79.50;;;;;;5038803;28;20374;-58
2023/02/22 11:08:20;;;;;;;18.20;9.77;;;13.10;79.30;;;;;;5044414;28;20026;-59
2023/02/22 11:10:47;;;;;;;22.45;9.88;;;13.20;78.70;;;;;;5043894;28;20086;-58
2023/02/22 11:13:37;;;;;;;22.50;9.75;;;13.40;78.50;;;;;;5048263;28;20017;-64
2023/02/22 11:16:27;;;;;;;13.52;8.43;;;13.60;78.00;;;;;;5039876;28;20041;-65
2023/02/22 11:19:22;;;;;;;20.33;9.15;;;13.70;77.50;;;;;;5042889;28;20091;-65
2023/02/22 11:21:57;;;;;;;18.77;8.85;;;13.70;76.50;;;;;;5027568;28;20459;-64
2023/02/22 11:24:25;;;;;;;13.48;7.70;;;13.70;76.70;;;;;;5042474;28;20369;-65
2023/02/22 11:26:57;;;;;;;18.70;9.18;;;13.70;76.70;;;;;;5043310;28;20021;-60
2023/02/22 11:29:31;;;;;;;20.37;9.53;;;13.80;76.30;;;;;;5042198;28;20371;-59
2023/02/22 11:31:59;;;;;;;20.73;9.77;;;13.80;75.90;;;;;;5046436;28;20283;-59
2023/02/22 11:34:33;;;;;;;14.60;8.40;;;13.80;75.20;;;;;;5045581;28;20040;-59
2023/02/22 11:37:28;;;;;;;16.05;7.65;;;13.90;75.30;;;;;;5043542;28;20397;-64
2023/02/22 11:40:18;;;;;;;18.13;9.13;;;14.10;74.40;;;;;;5041280;28;20056;-65
2023/02/22 11:42:45;;;;;;;17.45;8.88;;;14.30;74.10;;;;;;5040001;28;20401;-64
2023/02/22 11:45:11;;;;;;;20.17;9.18;;;14.40;73.60;;;;;;5044445;28;20033;-64
2023/02/22 11:47:57;;;;;;;13.48;7.47;;;14.50;73.40;;;;;;5042704;28;20454;-64
2023/02/22 11:51:01;;;;;;;15.60;7.93;;;14.70;72.30;;;;;;5043503;28;20450;-65
2023/02/22 11:53:43;;;;;;;13.38;8.60;;;14.70;71.50;;;;;;5044434;28;20586;-65
2023/02/22 11:56:20;;;;;;;12.32;7.32;;;14.60;69.20;;;;;;5045067;28;20040;-64
2023/02/22 11:58:54;;;;;;;18.45;8.57;;;14.40;70.40;;;;;;5041354;28;20035;-64
2023/02/22 12:01:23;;;;;;;12.63;8.07;;;14.20;70.60;;;;;;5038727;28;20036;-64
2023/02/22 12:04:22;;;;;;;15.02;6.80;;;14.00;70.80;;;;;;5042475;28;20392;-56
2023/02/22 12:07:34;;;;;;;15.68;6.90;;;13.90;71.70;;;;;;5037720;28;20025;-57
2023/02/22 12:10:18;;;;;;;12.13;7.80;;;13.90;71.70;;;;;;5041811;28;20060;-66
2023/02/22 12:13:28;;;;;;;13.25;6.72;;;13.80;72.10;;;;;;5038766;28;20116;-64
2023/02/22 12:16:02;;;;;;;11.75;5.85;;;13.80;72.10;;;;;;5025849;28;20122;-64
2023/02/22 12:18:38;;;;;;;12.75;6.82;;;13.70;72.40;;;;;;5041011;28;20087;-64
2023/02/22 12:21:11;;;;;;;13.88;6.65;;;13.80;72.60;;;;;;5038497;28;20784;-64
2023/02/22 12:23:52;;;;;;;14.82;5.95;;;13.90;72.50;;;;;;5033773;28;20484;-64
2023/02/22 12:26:35;;;;;;;15.10;8.23;;;14.10;72.30;;;;;;5044122;28;20368;-64
2023/02/22 12:29:15;;;;;;;13.63;7.35;;;14.30;72.00;;;;;;5075856;28;20025;-65
2023/02/22 12:31:52;;;;;;;15.25;7.70;;;14.50;70.80;;;;;;5041343;28;20061;-65
2023/02/22 12:34:29;;;;;;;12.40;6.38;;;14.70;70.80;;;;;;5042202;28;20124;-63
2023/02/22 12:37:10;;;;;;;12.75;7.43;;;14.90;70.40;;;;;;5041608;28;20082;-63
2023/02/22 12:39:53;;;;;;;14.85;7.80;;;14.90;69.90;;;;;;5044125;28;20387;-63
2023/02/22 12:42:28;;;;;;;;;;;14.90;69.80;;;;;;5045288;28;20029;-63
2023/02/22 12:45:00;;;;;;;10.52;6.60;;;14.90;70.00;;;;;;5041434;28;19917;-63
2023/02/22 12:47:33;;;;;;;10.20;5.82;;;14.80;69.80;;;;;;5040435;28;20394;-64
2023/02/22 12:50:18;;;;;;;9.85;6.32;;;14.60;70.30;;;;;;5040558;28;20484;-64
2023/02/22 12:53:05;;;;;;;10.45;5.60;;;14.50;70.80;;;;;;5037269;28;20048;-64
2023/02/22 12:55:50;;;;;;;12.93;6.40;;;14.30;71.10;;;;;;5039745;28;20021;-64
2023/02/22 12:58:38;;;;;;;11.23;7.05;;;14.30;71.30;;;;;;5038629;28;20053;-64
2023/02/22 13:01:17;;;;;;;10.88;7.13;;;14.30;71.40;;;;;;5037529;28;20060;-65